Nearby METAR Reports

 

EGVN - Brize Norton Raf, United Kingdom
Distance from station: SSE 20mi, 32km
Updated: 22/04/2018 01:50
Heavy thunderstorm, Rain, Overcast
Heavy thunderstorm, Rain, Overcast
 Wind from SSW
Wind: SSW 9 mph , 15 km/h
Temperature: 15°C
Dew Point: 12°C
Humidity: 82%
Barometer: 1013 hPa
Summary: Heavy thunderstorm, Rain
Clouds: Overcast
Visibility: 3 miles , 5 km
Cloud details: Overcast 1829 m
2018/04/22 00:50 EGVN 220050Z 21008KT 5000 +TSRA OVC060CB 15/12 Q1013 TEMPO 9999 NSW
EGTK - Oxford, United Kingdom
Distance from station: SE 22mi, 35km
Updated: 21/04/2018 21:20
NOT Current
Clear
Clear
 Wind from S
Wind: S 12 mph , 19 km/h
Temperature: 18°C
Dew Point: 12°C
Humidity: 68%
Barometer: 1015 hPa
Summary: Clear
Visibility: greater than 7 miles , 10 km
2018/04/21 20:20 EGTK 212020Z 18010KT 140V210 CAVOK 18/12 Q1015
 
EGBJ - Staverton (priva, United Kingdom
Distance from station: WSW 23mi, 36km
Updated: 21/04/2018 19:20
NOT Current
Partly cloudy
Partly cloudy
 Wind from SSE
Wind: SSE 7 mph , 11 km/h
Temperature: 22°C
Dew Point: 12°C
Humidity: 53%
Barometer: 1013 hPa
Clouds: Partly cloudy
Visibility: 6 miles , 10 km
Cloud details: Partly cloudy 1372 m
2018/04/21 18:20 EGBJ 211820Z 16006KT 9999 SCT045 22/12 Q1013
EGVA - Fairford Raf, United Kingdom
Distance from station: S 27mi, 43km
Updated: 22/04/2018 01:47
Light thunderstorm, Rain, Partly cloudy
Light thunderstorm, Rain, Partly cloudy
 Wind from SE
Wind: SE 8 mph , 13 km/h
Temperature: 15°C
Dew Point: 12°C
Humidity: 82%
Summary: Light thunderstorm, Rain
Clouds: Partly cloudy
Visibility: 3 miles , 4 km
Cloud details: Partly cloudy 945 m
Partly cloudy 2134 m
2018/04/22 00:47 EGVA 220047Z AUTO 13007KT 4400 -TSRA SCT031 SCT070 15/12 M RMK AO2 VIS 2600V4400 RAB23 TSB05E21TSB24E41TSB42 SLPNO $
 
EGBB - Birmingham Airpo, United Kingdom
Distance from station: N 29mi, 46km
Updated: 22/04/2018 01:50
Clear
Clear
 Wind from SSE
Wind: SSE 10 mph , 17 km/h
Temperature: 15°C
Dew Point: 13°C
Humidity: 88%
Barometer: 1012 hPa
Summary: Clear
Visibility: greater than 7 miles , 10 km
2018/04/22 00:50 EGBB 220050Z 15009KT CAVOK 15/13 Q1012
EGUB - Benson Raf, United Kingdom
Distance from station: SE 40mi, 65km
Updated: 22/04/2018 00:50
Mostly cloudy
Mostly cloudy
 Wind from ESE
Wind: ESE 15 mph , 24 km/h
Temperature: 14°C
Dew Point: 12°C
Humidity: 88%
Barometer: 1013 hPa
Clouds: Mostly cloudy
Visibility: 6 miles , 10 km
Cloud details: Mostly cloudy 1829 m
Mostly cloudy 3658 m
2018/04/21 23:50 EGUB 212350Z AUTO 11013KT 9999 // BKN060/// BKN120/// 14/12 Q1013
 
EGTC - Cranfield, United Kingdom
Distance from station: E 46mi, 74km
Updated: 21/04/2018 17:20
NOT Current
Clear
Clear
 Wind from SE
Wind: SE 8 mph , 13 km/h
Temperature: 21°C
Dew Point: 15°C
Humidity: 69%
Barometer: 1016 hPa
Summary: Clear
Visibility: greater than 7 miles , 10 km
2018/04/21 16:20 EGTC 211620Z 14007KT CAVOK 21/15 Q1016
EGWC - Cosford Raf, United Kingdom
Distance from station: NNW 46mi, 75km
Updated: 19/04/2018 15:50
NOT Current
Clear
Clear
 Wind from SE
Wind: SE 3 mph , 6 km/h
Temperature: 24°C
Dew Point: 10°C
Humidity: 41%
Barometer: 1023 hPa
Summary: Clear
Visibility: greater than 7 miles , 10 km
2018/04/19 14:50 EGWC 191450Z 13003KT CAVOK 24/10 Q1023 BLU